sensor_id;sensor_type;location;lat;lon;timestamp;P1;durP1;ratioP1;P2;durP2;ratioP2
20245;SDS011;10281;54.406;18.556;2023-03-01T00:01:16;7.50;;;4.00;;
20245;SDS011;10281;54.406;18.556;2023-03-01T00:03:45;8.73;;;3.50;;
20245;SDS011;10281;54.406;18.556;2023-03-01T00:06:13;8.17;;;3.60;;
20245;SDS011;10281;54.406;18.556;2023-03-01T00:08:40;6.73;;;3.50;;
20245;SDS011;10281;54.406;18.556;2023-03-01T00:11:07;6.60;;;3.67;;
20245;SDS011;10281;54.406;18.556;2023-03-01T00:13:38;7.10;;;3.97;;
20245;SDS011;10281;54.406;18.556;2023-03-01T00:16:06;5.57;;;3.57;;
20245;SDS011;10281;54.406;18.556;2023-03-01T00:18:35;6.93;;;3.53;;
20245;SDS011;10281;54.406;18.556;2023-03-01T00:21:02;7.43;;;3.93;;
20245;SDS011;10281;54.406;18.556;2023-03-01T00:23:29;8.43;;;3.87;;
20245;SDS011;10281;54.406;18.556;2023-03-01T00:25:55;8.90;;;4.13;;
20245;SDS011;10281;54.406;18.556;2023-03-01T00:28:22;7.33;;;4.23;;
20245;SDS011;10281;54.406;18.556;2023-03-01T00:30:49;5.87;;;3.77;;
20245;SDS011;10281;54.406;18.556;2023-03-01T00:33:15;7.03;;;4.00;;
20245;SDS011;10281;54.406;18.556;2023-03-01T00:35:42;11.30;;;4.67;;
20245;SDS011;10281;54.406;18.556;2023-03-01T00:38:10;6.93;;;3.97;;
20245;SDS011;10281;54.406;18.556;2023-03-01T00:40:36;5.47;;;3.63;;
20245;SDS011;10281;54.406;18.556;2023-03-01T00:43:03;5.87;;;3.73;;
20245;SDS011;10281;54.406;18.556;2023-03-01T00:45:30;10.63;;;4.47;;
20245;SDS011;10281;54.406;18.556;2023-03-01T00:47:59;8.17;;;3.53;;
20245;SDS011;10281;54.406;18.556;2023-03-01T00:50:25;7.63;;;4.03;;
20245;SDS011;10281;54.406;18.556;2023-03-01T00:52:52;10.13;;;4.60;;
20245;SDS011;10281;54.406;18.556;2023-03-01T00:55:20;7.60;;;4.10;;
20245;SDS011;10281;54.406;18.556;2023-03-01T00:57:46;6.87;;;4.10;;
20245;SDS011;10281;54.406;18.556;2023-03-01T01:00:13;13.07;;;4.63;;
20245;SDS011;10281;54.406;18.556;2023-03-01T01:02:40;6.53;;;4.30;;
20245;SDS011;10281;54.406;18.556;2023-03-01T01:05:07;10.73;;;4.37;;
20245;SDS011;10281;54.406;18.556;2023-03-01T01:07:33;6.03;;;4.10;;
20245;SDS011;10281;54.406;18.556;2023-03-01T01:10:00;10.50;;;4.33;;
20245;SDS011;10281;54.406;18.556;2023-03-01T01:12:27;8.17;;;4.10;;
20245;SDS011;10281;54.406;18.556;2023-03-01T01:14:53;7.57;;;4.30;;
20245;SDS011;10281;54.406;18.556;2023-03-01T01:17:20;8.47;;;4.43;;
20245;SDS011;10281;54.406;18.556;2023-03-01T01:19:47;8.20;;;4.37;;
20245;SDS011;10281;54.406;18.556;2023-03-01T01:22:14;7.60;;;4.50;;
20245;SDS011;10281;54.406;18.556;2023-03-01T01:24:40;11.00;;;4.90;;
20245;SDS011;10281;54.406;18.556;2023-03-01T01:27:07;8.60;;;4.57;;
20245;SDS011;10281;54.406;18.556;2023-03-01T01:29:34;11.17;;;5.20;;
20245;SDS011;10281;54.406;18.556;2023-03-01T01:32:00;10.77;;;5.40;;
20245;SDS011;10281;54.406;18.556;2023-03-01T01:34:27;6.47;;;4.77;;
20245;SDS011;10281;54.406;18.556;2023-03-01T01:36:54;7.87;;;4.40;;
20245;SDS011;10281;54.406;18.556;2023-03-01T01:39:20;10.13;;;4.87;;
20245;SDS011;10281;54.406;18.556;2023-03-01T01:41:47;8.40;;;5.23;;
20245;SDS011;10281;54.406;18.556;2023-03-01T01:44:24;9.00;;;4.40;;
20245;SDS011;10281;54.406;18.556;2023-03-01T01:46:53;10.77;;;5.13;;
20245;SDS011;10281;54.406;18.556;2023-03-01T01:49:27;9.70;;;4.90;;
20245;SDS011;10281;54.406;18.556;2023-03-01T01:51:59;8.07;;;4.97;;
20245;SDS011;10281;54.406;18.556;2023-03-01T01:54:27;8.37;;;4.93;;
20245;SDS011;10281;54.406;18.556;2023-03-01T01:56:57;9.37;;;4.60;;
20245;SDS011;10281;54.406;18.556;2023-03-01T01:59:26;11.87;;;5.20;;
20245;SDS011;10281;54.406;18.556;2023-03-01T02:01:57;11.43;;;4.90;;
20245;SDS011;10281;54.406;18.556;2023-03-01T02:04:25;9.10;;;5.50;;
20245;SDS011;10281;54.406;18.556;2023-03-01T02:06:54;9.70;;;5.00;;
20245;SDS011;10281;54.406;18.556;2023-03-01T02:09:22;8.10;;;5.03;;
20245;SDS011;10281;54.406;18.556;2023-03-01T02:11:50;8.60;;;5.70;;
20245;SDS011;10281;54.406;18.556;2023-03-01T02:14:17;8.70;;;5.33;;
20245;SDS011;10281;54.406;18.556;2023-03-01T02:16:44;12.30;;;6.10;;
20245;SDS011;10281;54.406;18.556;2023-03-01T02:19:14;10.10;;;5.80;;
20245;SDS011;10281;54.406;18.556;2023-03-01T02:21:48;11.57;;;6.63;;
20245;SDS011;10281;54.406;18.556;2023-03-01T02:24:28;12.57;;;6.80;;
20245;SDS011;10281;54.406;18.556;2023-03-01T02:26:53;12.73;;;6.47;;
20245;SDS011;10281;54.406;18.556;2023-03-01T02:29:22;14.83;;;7.30;;
20245;SDS011;10281;54.406;18.556;2023-03-01T02:31:49;11.57;;;6.37;;
20245;SDS011;10281;54.406;18.556;2023-03-01T02:34:21;11.27;;;7.27;;
20245;SDS011;10281;54.406;18.556;2023-03-01T02:36:53;13.63;;;7.17;;
20245;SDS011;10281;54.406;18.556;2023-03-01T02:39:25;11.70;;;7.73;;
20245;SDS011;10281;54.406;18.556;2023-03-01T02:41:55;14.20;;;8.17;;
20245;SDS011;10281;54.406;18.556;2023-03-01T02:44:24;11.93;;;7.60;;
20245;SDS011;10281;54.406;18.556;2023-03-01T02:46:51;14.43;;;7.47;;
20245;SDS011;10281;54.406;18.556;2023-03-01T02:49:24;14.00;;;7.97;;
20245;SDS011;10281;54.406;18.556;2023-03-01T02:52:01;15.83;;;8.23;;
20245;SDS011;10281;54.406;18.556;2023-03-01T02:54:31;14.10;;;8.13;;
20245;SDS011;10281;54.406;18.556;2023-03-01T02:57:02;14.57;;;8.17;;
20245;SDS011;10281;54.406;18.556;2023-03-01T02:59:30;15.37;;;8.13;;
20245;SDS011;10281;54.406;18.556;2023-03-01T03:02:02;13.27;;;7.60;;
20245;SDS011;10281;54.406;18.556;2023-03-01T03:04:29;18.77;;;8.93;;
20245;SDS011;10281;54.406;18.556;2023-03-01T03:06:56;16.47;;;8.33;;
20245;SDS011;10281;54.406;18.556;2023-03-01T03:09:22;16.87;;;8.60;;
20245;SDS011;10281;54.406;18.556;2023-03-01T03:11:49;16.50;;;8.40;;
20245;SDS011;10281;54.406;18.556;2023-03-01T03:14:16;14.87;;;8.10;;
20245;SDS011;10281;54.406;18.556;2023-03-01T03:16:44;16.40;;;8.80;;
20245;SDS011;10281;54.406;18.556;2023-03-01T03:19:13;16.80;;;8.47;;
20245;SDS011;10281;54.406;18.556;2023-03-01T03:21:42;17.87;;;8.07;;
20245;SDS011;10281;54.406;18.556;2023-03-01T03:24:09;15.10;;;7.70;;
20245;SDS011;10281;54.406;18.556;2023-03-01T03:26:35;14.20;;;8.57;;
20245;SDS011;10281;54.406;18.556;2023-03-01T03:29:02;13.03;;;8.10;;
20245;SDS011;10281;54.406;18.556;2023-03-01T03:31:30;14.93;;;8.57;;
20245;SDS011;10281;54.406;18.556;2023-03-01T03:33:56;18.17;;;8.87;;
20245;SDS011;10281;54.406;18.556;2023-03-01T03:36:24;15.77;;;8.50;;
20245;SDS011;10281;54.406;18.556;2023-03-01T03:38:51;15.10;;;8.27;;
20245;SDS011;10281;54.406;18.556;2023-03-01T03:41:17;15.03;;;8.53;;
20245;SDS011;10281;54.406;18.556;2023-03-01T03:43:44;17.00;;;8.90;;
20245;SDS011;10281;54.406;18.556;2023-03-01T03:46:11;17.10;;;9.23;;
20245;SDS011;10281;54.406;18.556;2023-03-01T03:48:39;16.83;;;8.93;;
20245;SDS011;10281;54.406;18.556;2023-03-01T03:51:09;16.90;;;8.87;;
20245;SDS011;10281;54.406;18.556;2023-03-01T03:53:37;14.70;;;8.07;;
20245;SDS011;10281;54.406;18.556;2023-03-01T03:56:04;18.97;;;8.87;;
20245;SDS011;10281;54.406;18.556;2023-03-01T03:58:31;19.37;;;9.77;;
20245;SDS011;10281;54.406;18.556;2023-03-01T04:00:58;18.00;;;8.73;;
20245;SDS011;10281;54.406;18.556;2023-03-01T04:03:27;14.47;;;8.57;;
20245;SDS011;10281;54.406;18.556;2023-03-01T04:05:56;16.63;;;8.27;;
20245;SDS011;10281;54.406;18.556;2023-03-01T04:08:24;17.30;;;9.07;;
20245;SDS011;10281;54.406;18.556;2023-03-01T04:10:52;14.83;;;8.87;;
20245;SDS011;10281;54.406;18.556;2023-03-01T04:13:24;16.67;;;8.90;;
20245;SDS011;10281;54.406;18.556;2023-03-01T04:15:52;17.47;;;9.40;;
20245;SDS011;10281;54.406;18.556;2023-03-01T04:18:22;16.13;;;9.20;;
20245;SDS011;10281;54.406;18.556;2023-03-01T04:20:50;13.37;;;8.13;;
20245;SDS011;10281;54.406;18.556;2023-03-01T04:23:20;20.07;;;9.20;;
20245;SDS011;10281;54.406;18.556;2023-03-01T04:25:51;17.60;;;8.83;;
20245;SDS011;10281;54.406;18.556;2023-03-01T04:28:21;17.10;;;9.40;;
20245;SDS011;10281;54.406;18.556;2023-03-01T04:30:50;17.60;;;9.40;;
20245;SDS011;10281;54.406;18.556;2023-03-01T04:33:18;17.93;;;9.63;;
20245;SDS011;10281;54.406;18.556;2023-03-01T04:35:46;17.63;;;10.00;;
20245;SDS011;10281;54.406;18.556;2023-03-01T04:38:15;19.80;;;10.47;;
20245;SDS011;10281;54.406;18.556;2023-03-01T04:40:43;21.53;;;10.13;;
20245;SDS011;10281;54.406;18.556;2023-03-01T04:43:11;18.23;;;9.90;;
20245;SDS011;10281;54.406;18.556;2023-03-01T04:45:40;18.70;;;9.43;;
20245;SDS011;10281;54.406;18.556;2023-03-01T04:48:07;19.93;;;10.27;;
20245;SDS011;10281;54.406;18.556;2023-03-01T04:50:33;23.13;;;10.23;;
20245;SDS011;10281;54.406;18.556;2023-03-01T04:53:02;20.03;;;9.73;;
20245;SDS011;10281;54.406;18.556;2023-03-01T04:55:28;17.47;;;8.60;;
20245;SDS011;10281;54.406;18.556;2023-03-01T04:57:55;18.73;;;9.17;;
20245;SDS011;10281;54.406;18.556;2023-03-01T05:00:22;16.47;;;9.60;;
20245;SDS011;10281;54.406;18.556;2023-03-01T05:02:50;18.73;;;10.10;;
20245;SDS011;10281;54.406;18.556;2023-03-01T05:05:22;18.00;;;9.90;;
20245;SDS011;10281;54.406;18.556;2023-03-01T05:07:52;18.60;;;10.17;;
20245;SDS011;10281;54.406;18.556;2023-03-01T05:10:21;20.03;;;10.20;;
20245;SDS011;10281;54.406;18.556;2023-03-01T05:12:49;16.43;;;8.57;;
20245;SDS011;10281;54.406;18.556;2023-03-01T05:15:18;18.30;;;10.13;;
20245;SDS011;10281;54.406;18.556;2023-03-01T05:17:48;17.73;;;8.50;;
20245;SDS011;10281;54.406;18.556;2023-03-01T05:20:15;16.93;;;9.03;;
20245;SDS011;10281;54.406;18.556;2023-03-01T05:22:42;19.13;;;9.43;;
20245;SDS011;10281;54.406;18.556;2023-03-01T05:25:09;17.00;;;9.90;;
20245;SDS011;10281;54.406;18.556;2023-03-01T05:27:36;15.97;;;8.83;;
20245;SDS011;10281;54.406;18.556;2023-03-01T05:30:03;14.50;;;9.13;;
20245;SDS011;10281;54.406;18.556;2023-03-01T05:32:32;15.60;;;9.27;;
20245;SDS011;10281;54.406;18.556;2023-03-01T05:34:58;19.83;;;9.93;;
20245;SDS011;10281;54.406;18.556;2023-03-01T05:37:25;18.40;;;10.10;;
20245;SDS011;10281;54.406;18.556;2023-03-01T05:39:52;20.17;;;10.83;;
20245;SDS011;10281;54.406;18.556;2023-03-01T05:42:18;19.93;;;11.23;;
20245;SDS011;10281;54.406;18.556;2023-03-01T05:44:45;19.80;;;10.07;;
20245;SDS011;10281;54.406;18.556;2023-03-01T05:47:11;19.07;;;9.70;;
20245;SDS011;10281;54.406;18.556;2023-03-01T05:49:38;21.93;;;10.17;;
20245;SDS011;10281;54.406;18.556;2023-03-01T05:52:04;18.67;;;10.40;;
20245;SDS011;10281;54.406;18.556;2023-03-01T05:54:31;17.43;;;9.53;;
20245;SDS011;10281;54.406;18.556;2023-03-01T05:56:58;16.77;;;9.47;;
20245;SDS011;10281;54.406;18.556;2023-03-01T05:59:25;16.93;;;9.87;;
20245;SDS011;10281;54.406;18.556;2023-03-01T06:01:51;14.80;;;9.63;;
20245;SDS011;10281;54.406;18.556;2023-03-01T06:04:19;16.27;;;9.33;;
20245;SDS011;10281;54.406;18.556;2023-03-01T06:06:46;18.27;;;9.73;;
20245;SDS011;10281;54.406;18.556;2023-03-01T06:09:13;18.17;;;9.60;;
20245;SDS011;10281;54.406;18.556;2023-03-01T06:11:40;16.13;;;9.37;;
20245;SDS011;10281;54.406;18.556;2023-03-01T06:14:07;18.77;;;9.70;;
20245;SDS011;10281;54.406;18.556;2023-03-01T06:16:36;19.57;;;10.43;;
20245;SDS011;10281;54.406;18.556;2023-03-01T06:19:02;15.17;;;9.17;;
20245;SDS011;10281;54.406;18.556;2023-03-01T06:21:29;19.00;;;9.63;;
20245;SDS011;10281;54.406;18.556;2023-03-01T06:23:55;19.90;;;9.37;;
20245;SDS011;10281;54.406;18.556;2023-03-01T06:26:22;17.47;;;9.30;;
20245;SDS011;10281;54.406;18.556;2023-03-01T06:28:48;17.40;;;8.57;;
20245;SDS011;10281;54.406;18.556;2023-03-01T06:31:15;16.73;;;8.93;;
20245;SDS011;10281;54.406;18.556;2023-03-01T06:33:43;15.57;;;8.97;;
20245;SDS011;10281;54.406;18.556;2023-03-01T06:36:10;16.50;;;8.70;;
20245;SDS011;10281;54.406;18.556;2023-03-01T06:38:37;18.33;;;9.33;;
20245;SDS011;10281;54.406;18.556;2023-03-01T06:41:04;17.80;;;8.60;;
20245;SDS011;10281;54.406;18.556;2023-03-01T06:43:30;15.93;;;8.80;;
20245;SDS011;10281;54.406;18.556;2023-03-01T06:45:57;15.80;;;8.33;;
20245;SDS011;10281;54.406;18.556;2023-03-01T06:48:24;13.07;;;7.53;;
20245;SDS011;10281;54.406;18.556;2023-03-01T06:50:50;20.23;;;11.30;;
20245;SDS011;10281;54.406;18.556;2023-03-01T06:53:17;12.80;;;8.07;;
20245;SDS011;10281;54.406;18.556;2023-03-01T06:55:43;14.37;;;7.87;;
20245;SDS011;10281;54.406;18.556;2023-03-01T06:58:10;14.83;;;8.37;;
20245;SDS011;10281;54.406;18.556;2023-03-01T07:00:37;15.07;;;8.27;;
20245;SDS011;10281;54.406;18.556;2023-03-01T07:03:06;14.03;;;8.20;;
20245;SDS011;10281;54.406;18.556;2023-03-01T07:05:32;16.23;;;9.00;;
20245;SDS011;10281;54.406;18.556;2023-03-01T07:08:00;19.70;;;10.90;;
20245;SDS011;10281;54.406;18.556;2023-03-01T07:10:26;16.07;;;9.70;;
20245;SDS011;10281;54.406;18.556;2023-03-01T07:12:55;17.33;;;9.03;;
20245;SDS011;10281;54.406;18.556;2023-03-01T07:15:22;17.67;;;9.73;;
20245;SDS011;10281;54.406;18.556;2023-03-01T07:17:49;17.23;;;10.93;;
20245;SDS011;10281;54.406;18.556;2023-03-01T07:20:18;19.60;;;10.53;;
20245;SDS011;10281;54.406;18.556;2023-03-01T07:22:47;20.90;;;10.93;;
20245;SDS011;10281;54.406;18.556;2023-03-01T07:25:14;20.63;;;11.30;;
20245;SDS011;10281;54.406;18.556;2023-03-01T07:27:40;22.00;;;13.60;;
20245;SDS011;10281;54.406;18.556;2023-03-01T07:30:07;26.93;;;18.57;;
20245;SDS011;10281;54.406;18.556;2023-03-01T07:32:35;42.30;;;24.77;;
20245;SDS011;10281;54.406;18.556;2023-03-01T07:35:02;22.83;;;14.03;;
20245;SDS011;10281;54.406;18.556;2023-03-01T07:37:29;18.90;;;10.40;;
20245;SDS011;10281;54.406;18.556;2023-03-01T07:39:55;15.50;;;9.53;;
20245;SDS011;10281;54.406;18.556;2023-03-01T07:42:23;19.40;;;9.73;;
20245;SDS011;10281;54.406;18.556;2023-03-01T07:44:49;17.57;;;9.43;;
20245;SDS011;10281;54.406;18.556;2023-03-01T07:47:16;16.57;;;9.33;;
20245;SDS011;10281;54.406;18.556;2023-03-01T07:49:42;17.00;;;9.47;;
20245;SDS011;10281;54.406;18.556;2023-03-01T07:52:10;19.07;;;11.97;;
20245;SDS011;10281;54.406;18.556;2023-03-01T07:54:38;23.43;;;14.23;;
20245;SDS011;10281;54.406;18.556;2023-03-01T07:57:04;18.27;;;11.50;;
20245;SDS011;10281;54.406;18.556;2023-03-01T07:59:31;18.47;;;10.13;;
20245;SDS011;10281;54.406;18.556;2023-03-01T08:01:59;17.63;;;9.90;;
20245;SDS011;10281;54.406;18.556;2023-03-01T08:04:26;16.93;;;9.87;;
20245;SDS011;10281;54.406;18.556;2023-03-01T08:06:53;18.20;;;10.23;;
20245;SDS011;10281;54.406;18.556;2023-03-01T08:09:21;13.90;;;8.33;;
20245;SDS011;10281;54.406;18.556;2023-03-01T08:11:48;14.93;;;9.00;;
20245;SDS011;10281;54.406;18.556;2023-03-01T08:14:14;13.03;;;8.60;;
20245;SDS011;10281;54.406;18.556;2023-03-01T08:16:41;16.40;;;9.67;;
20245;SDS011;10281;54.406;18.556;2023-03-01T08:19:08;17.67;;;10.40;;
20245;SDS011;10281;54.406;18.556;2023-03-01T08:21:38;15.87;;;10.23;;
20245;SDS011;10281;54.406;18.556;2023-03-01T08:24:06;41.47;;;22.73;;
20245;SDS011;10281;54.406;18.556;2023-03-01T08:26:36;21.63;;;11.10;;
20245;SDS011;10281;54.406;18.556;2023-03-01T08:29:03;46.17;;;20.50;;
20245;SDS011;10281;54.406;18.556;2023-03-01T08:31:33;30.67;;;14.40;;
20245;SDS011;10281;54.406;18.556;2023-03-01T08:34:03;23.67;;;12.53;;
20245;SDS011;10281;54.406;18.556;2023-03-01T08:36:33;28.13;;;14.60;;
20245;SDS011;10281;54.406;18.556;2023-03-01T08:39:03;18.40;;;11.97;;
20245;SDS011;10281;54.406;18.556;2023-03-01T08:41:30;16.63;;;10.13;;
20245;SDS011;10281;54.406;18.556;2023-03-01T08:43:57;21.17;;;13.63;;
20245;SDS011;10281;54.406;18.556;2023-03-01T08:46:26;16.80;;;10.87;;
20245;SDS011;10281;54.406;18.556;2023-03-01T08:48:55;15.77;;;10.23;;
20245;SDS011;10281;54.406;18.556;2023-03-01T08:51:22;13.37;;;9.67;;
20245;SDS011;10281;54.406;18.556;2023-03-01T08:53:50;14.53;;;8.63;;
20245;SDS011;10281;54.406;18.556;2023-03-01T08:56:17;13.93;;;9.70;;
20245;SDS011;10281;54.406;18.556;2023-03-01T08:58:46;12.93;;;7.67;;
20245;SDS011;10281;54.406;18.556;2023-03-01T09:01:15;12.77;;;7.80;;
20245;SDS011;10281;54.406;18.556;2023-03-01T09:03:44;14.33;;;8.40;;
20245;SDS011;10281;54.406;18.556;2023-03-01T09:06:11;11.60;;;7.30;;
20245;SDS011;10281;54.406;18.556;2023-03-01T09:08:40;13.37;;;8.97;;
20245;SDS011;10281;54.406;18.556;2023-03-01T09:11:09;14.10;;;8.57;;
20245;SDS011;10281;54.406;18.556;2023-03-01T09:13:37;13.80;;;9.03;;
20245;SDS011;10281;54.406;18.556;2023-03-01T09:16:05;14.80;;;8.53;;
20245;SDS011;10281;54.406;18.556;2023-03-01T09:18:33;13.27;;;8.63;;
20245;SDS011;10281;54.406;18.556;2023-03-01T09:21:00;13.30;;;8.73;;
20245;SDS011;10281;54.406;18.556;2023-03-01T09:23:31;14.60;;;8.30;;
20245;SDS011;10281;54.406;18.556;2023-03-01T09:25:57;14.47;;;8.70;;
20245;SDS011;10281;54.406;18.556;2023-03-01T09:28:24;14.53;;;8.57;;
20245;SDS011;10281;54.406;18.556;2023-03-01T09:30:51;12.87;;;8.07;;
20245;SDS011;10281;54.406;18.556;2023-03-01T09:33:18;12.30;;;8.37;;
20245;SDS011;10281;54.406;18.556;2023-03-01T09:35:44;13.03;;;8.60;;
20245;SDS011;10281;54.406;18.556;2023-03-01T09:38:12;15.93;;;9.57;;
20245;SDS011;10281;54.406;18.556;2023-03-01T09:40:42;13.90;;;9.13;;
20245;SDS011;10281;54.406;18.556;2023-03-01T09:43:15;15.03;;;10.47;;
20245;SDS011;10281;54.406;18.556;2023-03-01T09:45:59;14.40;;;8.80;;
20245;SDS011;10281;54.406;18.556;2023-03-01T09:48:29;21.50;;;13.07;;
20245;SDS011;10281;54.406;18.556;2023-03-01T09:50:59;19.17;;;12.27;;
20245;SDS011;10281;54.406;18.556;2023-03-01T09:53:31;16.87;;;11.07;;
20245;SDS011;10281;54.406;18.556;2023-03-01T09:56:19;21.57;;;15.00;;
20245;SDS011;10281;54.406;18.556;2023-03-01T09:58:50;17.37;;;11.77;;
20245;SDS011;10281;54.406;18.556;2023-03-01T10:06:58;12.57;;;8.80;;
20245;SDS011;10281;54.406;18.556;2023-03-01T10:09:26;14.80;;;8.80;;
20245;SDS011;10281;54.406;18.556;2023-03-01T10:11:57;18.37;;;9.83;;
20245;SDS011;10281;54.406;18.556;2023-03-01T10:14:29;14.70;;;10.27;;
20245;SDS011;10281;54.406;18.556;2023-03-01T10:17:00;16.03;;;11.10;;
20245;SDS011;10281;54.406;18.556;2023-03-01T10:19:37;16.20;;;10.57;;
20245;SDS011;10281;54.406;18.556;2023-03-01T10:24:41;23.07;;;13.77;;
20245;SDS011;10281;54.406;18.556;2023-03-01T10:27:13;23.67;;;14.13;;
20245;SDS011;10281;54.406;18.556;2023-03-01T10:32:23;16.73;;;10.70;;
20245;SDS011;10281;54.406;18.556;2023-03-01T10:34:51;19.93;;;11.07;;
20245;SDS011;10281;54.406;18.556;2023-03-01T10:37:18;14.13;;;9.53;;
20245;SDS011;10281;54.406;18.556;2023-03-01T10:42:25;28.40;;;18.03;;
20245;SDS011;10281;54.406;18.556;2023-03-01T10:44:53;29.20;;;19.83;;
20245;SDS011;10281;54.406;18.556;2023-03-01T10:47:21;25.03;;;16.13;;
20245;SDS011;10281;54.406;18.556;2023-03-01T10:49:54;22.70;;;15.03;;
20245;SDS011;10281;54.406;18.556;2023-03-01T10:52:26;24.27;;;16.57;;
20245;SDS011;10281;54.406;18.556;2023-03-01T10:54:57;20.10;;;12.17;;
20245;SDS011;10281;54.406;18.556;2023-03-01T10:57:29;20.37;;;12.13;;
20245;SDS011;10281;54.406;18.556;2023-03-01T11:05:49;29.93;;;18.87;;
20245;SDS011;10281;54.406;18.556;2023-03-01T11:08:30;30.67;;;19.87;;
20245;SDS011;10281;54.406;18.556;2023-03-01T11:11:21;21.77;;;13.17;;
20245;SDS011;10281;54.406;18.556;2023-03-01T11:13:52;17.47;;;11.33;;
20245;SDS011;10281;54.406;18.556;2023-03-01T11:16:29;18.43;;;11.93;;
20245;SDS011;10281;54.406;18.556;2023-03-01T11:19:17;19.77;;;12.07;;
20245;SDS011;10281;54.406;18.556;2023-03-01T11:21:52;16.87;;;10.70;;
20245;SDS011;10281;54.406;18.556;2023-03-01T11:24:23;15.57;;;10.63;;
20245;SDS011;10281;54.406;18.556;2023-03-01T11:26:52;18.20;;;10.47;;
20245;SDS011;10281;54.406;18.556;2023-03-01T11:29:26;16.80;;;11.23;;
20245;SDS011;10281;54.406;18.556;2023-03-01T11:32:00;18.97;;;12.00;;
20245;SDS011;10281;54.406;18.556;2023-03-01T11:34:32;18.07;;;11.27;;
20245;SDS011;10281;54.406;18.556;2023-03-01T11:37:02;18.27;;;11.53;;
20245;SDS011;10281;54.406;18.556;2023-03-01T11:39:32;18.03;;;11.33;;
20245;SDS011;10281;54.406;18.556;2023-03-01T11:42:06;17.00;;;10.70;;
20245;SDS011;10281;54.406;18.556;2023-03-01T11:44:37;17.23;;;11.27;;
20245;SDS011;10281;54.406;18.556;2023-03-01T11:47:10;19.90;;;11.77;;
20245;SDS011;10281;54.406;18.556;2023-03-01T11:50:29;19.17;;;11.70;;
20245;SDS011;10281;54.406;18.556;2023-03-01T11:52:59;19.33;;;12.80;;
20245;SDS011;10281;54.406;18.556;2023-03-01T11:55:40;20.03;;;12.13;;
20245;SDS011;10281;54.406;18.556;2023-03-01T11:58:14;18.67;;;12.00;;
20245;SDS011;10281;54.406;18.556;2023-03-01T12:00:57;18.03;;;12.17;;
20245;SDS011;10281;54.406;18.556;2023-03-01T12:03:29;16.57;;;12.00;;
20245;SDS011;10281;54.406;18.556;2023-03-01T12:06:08;16.50;;;10.67;;
20245;SDS011;10281;54.406;18.556;2023-03-01T12:08:56;14.93;;;10.80;;
20245;SDS011;10281;54.406;18.556;2023-03-01T12:14:50;16.70;;;11.00;;
20245;SDS011;10281;54.406;18.556;2023-03-01T12:17:41;21.10;;;13.87;;
20245;SDS011;10281;54.406;18.556;2023-03-01T12:20:14;18.67;;;11.63;;
20245;SDS011;10281;54.406;18.556;2023-03-01T12:22:47;18.90;;;12.77;;
20245;SDS011;10281;54.406;18.556;2023-03-01T12:25:22;23.23;;;13.03;;
20245;SDS011;10281;54.406;18.556;2023-03-01T12:28:00;18.63;;;12.77;;
20245;SDS011;10281;54.406;18.556;2023-03-01T12:33:23;18.57;;;12.60;;
20245;SDS011;10281;54.406;18.556;2023-03-01T12:38:41;18.77;;;13.63;;
20245;SDS011;10281;54.406;18.556;2023-03-01T12:41:46;17.67;;;12.60;;
20245;SDS011;10281;54.406;18.556;2023-03-01T12:46:58;17.27;;;13.13;;
20245;SDS011;10281;54.406;18.556;2023-03-01T12:49:42;19.47;;;12.60;;
20245;SDS011;10281;54.406;18.556;2023-03-01T12:52:23;15.83;;;11.10;;
20245;SDS011;10281;54.406;18.556;2023-03-01T12:55:07;18.63;;;11.87;;
20245;SDS011;10281;54.406;18.556;2023-03-01T12:57:39;19.27;;;12.00;;
20245;SDS011;10281;54.406;18.556;2023-03-01T13:02:46;17.17;;;11.67;;
20245;SDS011;10281;54.406;18.556;2023-03-01T13:05:24;17.10;;;11.67;;
20245;SDS011;10281;54.406;18.556;2023-03-01T13:07:57;18.17;;;11.20;;
20245;SDS011;10281;54.406;18.556;2023-03-01T13:10:31;16.33;;;10.43;;
20245;SDS011;10281;54.406;18.556;2023-03-01T13:13:10;15.93;;;11.07;;
20245;SDS011;10281;54.406;18.556;2023-03-01T13:15:39;17.57;;;10.53;;
20245;SDS011;10281;54.406;18.556;2023-03-01T13:20:56;18.67;;;11.93;;
20245;SDS011;10281;54.406;18.556;2023-03-01T13:23:27;15.97;;;10.50;;
20245;SDS011;10281;54.406;18.556;2023-03-01T13:26:00;18.07;;;11.43;;
20245;SDS011;10281;54.406;18.556;2023-03-01T13:28:37;18.40;;;10.80;;
20245;SDS011;10281;54.406;18.556;2023-03-01T13:31:10;18.30;;;10.93;;
20245;SDS011;10281;54.406;18.556;2023-03-01T13:33:58;18.23;;;11.00;;
20245;SDS011;10281;54.406;18.556;2023-03-01T13:41:54;15.03;;;10.27;;
20245;SDS011;10281;54.406;18.556;2023-03-01T13:47:14;17.47;;;11.90;;
20245;SDS011;10281;54.406;18.556;2023-03-01T13:49:48;16.20;;;11.03;;
20245;SDS011;10281;54.406;18.556;2023-03-01T13:54:56;16.13;;;11.30;;
20245;SDS011;10281;54.406;18.556;2023-03-01T13:57:26;17.37;;;11.37;;
20245;SDS011;10281;54.406;18.556;2023-03-01T13:59:54;18.97;;;11.73;;
20245;SDS011;10281;54.406;18.556;2023-03-01T14:02:21;15.93;;;11.27;;
20245;SDS011;10281;54.406;18.556;2023-03-01T14:04:55;15.80;;;11.13;;
20245;SDS011;10281;54.406;18.556;2023-03-01T14:07:24;17.13;;;11.67;;
20245;SDS011;10281;54.406;18.556;2023-03-01T14:09:54;17.33;;;11.80;;
20245;SDS011;10281;54.406;18.556;2023-03-01T14:12:36;14.20;;;10.40;;
20245;SDS011;10281;54.406;18.556;2023-03-01T14:15:19;14.23;;;10.73;;
20245;SDS011;10281;54.406;18.556;2023-03-01T14:17:55;16.27;;;11.13;;
20245;SDS011;10281;54.406;18.556;2023-03-01T14:20:30;16.50;;;10.77;;
20245;SDS011;10281;54.406;18.556;2023-03-01T14:23:02;15.60;;;10.73;;
20245;SDS011;10281;54.406;18.556;2023-03-01T14:25:31;15.70;;;11.00;;
20245;SDS011;10281;54.406;18.556;2023-03-01T14:28:00;16.70;;;10.27;;
20245;SDS011;10281;54.406;18.556;2023-03-01T14:30:37;15.37;;;10.30;;
20245;SDS011;10281;54.406;18.556;2023-03-01T14:33:17;16.03;;;10.33;;
20245;SDS011;10281;54.406;18.556;2023-03-01T14:35:41;17.03;;;11.60;;
20245;SDS011;10281;54.406;18.556;2023-03-01T14:38:19;17.57;;;10.50;;
20245;SDS011;10281;54.406;18.556;2023-03-01T14:40:40;18.03;;;11.77;;
20245;SDS011;10281;54.406;18.556;2023-03-01T14:43:09;15.90;;;10.30;;
20245;SDS011;10281;54.406;18.556;2023-03-01T14:45:38;18.90;;;10.73;;
20245;SDS011;10281;54.406;18.556;2023-03-01T14:48:05;16.03;;;10.33;;
20245;SDS011;10281;54.406;18.556;2023-03-01T14:50:34;17.13;;;11.90;;
20245;SDS011;10281;54.406;18.556;2023-03-01T14:53:04;20.57;;;12.97;;
20245;SDS011;10281;54.406;18.556;2023-03-01T14:55:34;22.30;;;13.87;;
20245;SDS011;10281;54.406;18.556;2023-03-01T14:58:04;19.83;;;11.43;;
20245;SDS011;10281;54.406;18.556;2023-03-01T15:00:33;15.50;;;10.53;;
20245;SDS011;10281;54.406;18.556;2023-03-01T15:03:06;16.30;;;10.60;;
20245;SDS011;10281;54.406;18.556;2023-03-01T15:05:37;13.27;;;9.87;;
20245;SDS011;10281;54.406;18.556;2023-03-01T15:08:05;15.67;;;10.60;;
20245;SDS011;10281;54.406;18.556;2023-03-01T15:10:35;16.13;;;10.20;;
20245;SDS011;10281;54.406;18.556;2023-03-01T15:15:41;15.93;;;10.87;;
20245;SDS011;10281;54.406;18.556;2023-03-01T15:18:16;15.10;;;11.40;;
20245;SDS011;10281;54.406;18.556;2023-03-01T15:20:43;18.13;;;10.27;;
20245;SDS011;10281;54.406;18.556;2023-03-01T15:23:17;16.70;;;10.80;;